Meteopurmerend
purmerend
Purmerend - Baaienwijk



My webcam  My webcam


Onweer radar Meer informatie blitzortung!


Regen radar Meer informatie rain snow radar


Bezoek onze andere website:

CandyAppleRed WebdesignWebdesign Purmerend Candy Apple Red

MeteopurmerendBlog

Template documentation
and downloads



Het weer levert geen direct gevaar op.    Er zijn geen waarschuwingen afgegeven.

METAR rapporten vliegvelden

   
EHAM - Amsterdam
Gewijzigd: 17-12-2018 14:25
Grotendeels bewolkt  
Grotendeels bewolkt  
   Wind: Westen 25.9 km/h
Wind: Westen 25.9 km/h
Temperatuur: 8°C
Voelt als: 4°C
Dauwpunt: 6°C
Vochtigheid: 87%
Barometer: 1017 hPa
Bewolking: Mostly Cloudy
Zicht: meer dan 10 km
Bewolking: Licht bewolkt 1600 ft,
Grotendeels bewolkt 3200 ft
EHAM 171325Z 26014KT 220V280 9999 FEW016 BKN032 08/06 Q1017 NOSIG
EHRD - Rotterdam
Gewijzigd: 17-12-2018 14:25
Grotendeels bewolkt  
Grotendeels bewolkt  
   Wind: WZW 24.1 km/h
Wind: WZW 24.1 km/h
Temperatuur: 9°C
Voelt als: 6°C
Dauwpunt: 6°C
Vochtigheid: 82%
Barometer: 1017 hPa
Bewolking: Mostly Cloudy
Zicht: meer dan 10 km
Bewolking: Licht bewolkt 1600 ft,
Grotendeels bewolkt 2000 ft
EHRD 171325Z AUTO 25013KT 220V280 9999 FEW016 BKN020 09/06 Q1017 NOSIG
EHLE - Lelystad
Gewijzigd: 01-01-1970 01:00
Verouderd
  
  
   Wind: Kalm
Wind: Kalm
EHBK - Maastricht
Gewijzigd: 17-12-2018 14:25
Bewolking  
Bewolking  
   Wind: WZW 20.4 km/h
Wind: WZW 20.4 km/h
Temperatuur: 8°C
Voelt als: 5°C
Dauwpunt: 5°C
Vochtigheid: 82%
Barometer: 1019 hPa
Bewolking: Overcast
Zicht: meer dan 10 km
Bewolking: Grotendeels bewolkt 1400 ft,
Grotendeels bewolkt 1800 ft,
Bewolking 4100 ft
EHBK 171325Z AUTO 24011KT 210V280 9999 BKN014 BKN018 OVC041 08/05 Q1019 BECMG BKN018
ELLX - Luxemburg
Gewijzigd: 17-12-2018 14:20
Grotendeels bewolkt  
Grotendeels bewolkt  
   Wind: WZW 22.2 km/h
Wind: WZW 22.2 km/h
Temperatuur: 5°C
Voelt als: 1°C
Dauwpunt: 4°C
Vochtigheid: 93%
Barometer: 1021 hPa
Bewolking: Mostly Cloudy
Zicht: 6 km
Bewolking: Grotendeels bewolkt 400 ft
ELLX 171320Z 25012KT 210V270 6000 BKN004 05/04 Q1021 NOSIG
EBOS - Oostende
Gewijzigd: 17-12-2018 14:20
Licht bewolkt  
Licht bewolkt  
   Wind: WZW 20.4 km/h
Wind: WZW 20.4 km/h
Temperatuur: 9°C
Voelt als: 6°C
Dauwpunt: 6°C
Vochtigheid: 82%
Barometer: 1020 hPa
Bewolking: Few Clouds
Zicht: meer dan 10 km
Bewolking: Licht bewolkt 2000 ft
EBOS 171320Z 25011KT 9999 FEW020 09/06 Q1020 NOSIG

Script ontwikkeld door  Saratoga-weather.org Aangepast voor de template door  Weerstation Leuven

U vindt ons ook hier:

UK Metoffice

European Weather Network

Weather Underground

AWEKAS

Citizen Weather Observer Program (CWOP)

HAMweather, WeatherForYou, PWS Weather

Apparatuur in gebruik:

Weerstation
Davis Vue

Weerprogramma
Meteobridge

Weercomputer
QR code

Webleverancier
Wned

Davis Vue

Meteobridge

QR code

Wned